createdAt,value
2023-03-10T00:03:08.986Z,3.68
2023-03-10T00:06:50.744Z,4.57
2023-03-10T00:10:32.398Z,4.99
2023-03-10T00:17:54.131Z,4.56
2023-03-10T00:28:55.891Z,0.00
2023-03-10T00:39:57.613Z,0.00
2023-03-10T00:47:19.294Z,2.09
2023-03-10T00:58:21.017Z,0.00
2023-03-10T01:09:22.821Z,0.00
2023-03-10T01:20:24.526Z,0.00
2023-03-10T01:31:26.352Z,0.00
2023-03-10T01:35:07.860Z,2.09
2023-03-10T01:46:09.642Z,0.00
2023-03-10T01:57:11.354Z,0.00
2023-03-10T02:08:13.065Z,2.29
2023-03-10T02:19:15.015Z,3.65
2023-03-10T02:22:56.665Z,3.88
2023-03-10T02:26:38.453Z,3.83
2023-03-10T02:30:20.087Z,3.45
2023-03-10T02:41:21.986Z,0.00
2023-03-10T02:45:03.484Z,2.68
2023-03-10T02:52:25.216Z,4.34
2023-03-10T02:56:06.807Z,2.09
2023-03-10T02:59:48.475Z,4.59
2023-03-10T03:03:30.260Z,7.95
2023-03-10T03:07:11.964Z,7.37
2023-03-10T03:10:53.637Z,3.17
2023-03-10T03:18:15.371Z,2.98
2023-03-10T03:21:56.978Z,2.87
2023-03-10T03:25:38.675Z,2.95
2023-03-10T03:29:20.344Z,6.35
2023-03-10T03:33:02.131Z,4.06
2023-03-10T03:36:43.736Z,2.48
2023-03-10T03:47:45.441Z,0.00
2023-03-10T03:58:47.269Z,0.00
2023-03-10T04:06:08.970Z,6.17
2023-03-10T04:09:50.688Z,3.16
2023-03-10T04:13:32.300Z,2.32
2023-03-10T04:17:14.107Z,5.06
2023-03-10T04:20:55.682Z,4.34
2023-03-10T04:24:37.486Z,5.29
2023-03-10T04:28:19.131Z,3.21
2023-03-10T04:32:05.484Z,3.39
2023-03-10T04:35:43.449Z,1.99
2023-03-10T04:39:25.002Z,3.12
2023-03-10T04:50:26.743Z,0.00
2023-03-10T05:01:28.569Z,0.00
2023-03-10T05:12:30.223Z,0.00
2023-03-10T05:23:31.997Z,0.00
2023-03-10T05:27:13.649Z,3.06
2023-03-10T05:30:55.242Z,2.22
2023-03-10T05:41:56.986Z,0.00
2023-03-10T05:52:58.717Z,0.00
2023-03-10T06:00:20.426Z,1.70
2023-03-10T06:11:22.155Z,0.00
2023-03-10T06:18:43.883Z,2.32
2023-03-10T06:22:25.474Z,2.72
2023-03-10T06:26:07.147Z,3.08
2023-03-10T06:29:48.721Z,3.58
2023-03-10T06:33:30.362Z,4.70
2023-03-10T06:37:12.036Z,4.54
2023-03-10T06:40:53.679Z,3.70
2023-03-10T06:44:35.424Z,4.44
2023-03-10T06:48:17.141Z,4.28
2023-03-10T06:51:58.814Z,6.25
2023-03-10T06:55:40.539Z,4.13
2023-03-10T06:59:22.215Z,6.93
2023-03-10T07:03:03.895Z,4.75
2023-03-10T07:10:25.616Z,10.16
2023-03-10T07:14:07.341Z,5.91
2023-03-10T07:17:48.863Z,4.23
2023-03-10T07:25:10.538Z,3.20
2023-03-10T07:32:32.370Z,4.70
2023-03-10T07:36:14.027Z,6.27
2023-03-10T07:39:55.691Z,5.28
2023-03-10T07:43:37.351Z,4.05
2023-03-10T07:47:19.110Z,5.07
2023-03-10T07:51:00.791Z,2.78
2023-03-10T07:54:42.560Z,8.60
2023-03-10T07:58:24.380Z,7.04
2023-03-10T08:02:06.349Z,8.32
2023-03-10T08:05:48.113Z,4.77
2023-03-10T08:09:29.970Z,4.83
2023-03-10T08:13:11.608Z,2.64
2023-03-10T08:16:53.421Z,6.15
2023-03-10T08:20:35.554Z,3.72
2023-03-10T08:24:16.803Z,3.31
2023-03-10T08:27:58.532Z,3.37
2023-03-10T08:31:40.285Z,4.88
2023-03-10T08:42:41.941Z,4.62
2023-03-10T08:46:23.752Z,3.85
2023-03-10T08:50:05.633Z,10.66
2023-03-10T08:53:47.563Z,12.45
2023-03-10T08:57:29.536Z,8.13
2023-03-10T09:01:11.415Z,5.25
2023-03-10T09:04:53.288Z,5.90
2023-03-10T09:08:35.202Z,6.16
2023-03-10T09:12:17.221Z,5.04
2023-03-10T09:16:00.397Z,8.62
2023-03-10T09:19:41.468Z,3.26
2023-03-10T09:23:23.243Z,4.75
2023-03-10T09:27:04.926Z,3.08
2023-03-10T09:30:46.686Z,8.58
2023-03-10T09:34:28.337Z,5.69
2023-03-10T09:38:09.928Z,1.83
2023-03-10T09:41:51.551Z,2.09
2023-03-10T09:45:33.417Z,7.36
2023-03-10T09:49:15.312Z,4.68
2023-03-10T09:52:57.130Z,5.68
2023-03-10T09:56:38.919Z,3.80
2023-03-10T10:00:20.578Z,2.29
2023-03-10T10:07:42.270Z,3.54
2023-03-10T10:18:44.104Z,3.41
2023-03-10T10:22:25.783Z,3.39
2023-03-10T10:26:07.444Z,3.82
2023-03-10T10:29:49.034Z,2.35
2023-03-10T10:33:30.750Z,3.14
2023-03-10T10:37:14.096Z,4.09
2023-03-10T10:44:34.096Z,3.12
2023-03-10T10:48:15.830Z,2.86
2023-03-10T10:55:37.524Z,1.70
2023-03-10T10:59:19.110Z,3.44
2023-03-10T11:06:40.771Z,2.17
2023-03-10T11:10:22.536Z,4.88
2023-03-10T11:14:04.389Z,4.97
2023-03-10T11:17:46.147Z,4.06
2023-03-10T11:21:30.039Z,4.86
2023-03-10T11:25:11.902Z,7.28
2023-03-10T11:28:53.798Z,4.99
2023-03-10T11:32:35.898Z,7.48
2023-03-10T11:36:17.895Z,11.00
2023-03-10T11:39:59.808Z,6.34
2023-03-10T11:43:41.754Z,5.86
2023-03-10T11:47:23.696Z,8.38
2023-03-10T11:51:05.690Z,8.35
2023-03-10T11:54:47.540Z,5.97
2023-03-10T11:58:29.374Z,5.06
2023-03-10T12:02:11.286Z,5.67
2023-03-10T12:05:53.210Z,4.76
2023-03-10T12:09:34.769Z,3.07
2023-03-10T12:13:16.615Z,6.67
2023-03-10T12:16:58.460Z,6.30
2023-03-10T12:28:00.247Z,2.35
2023-03-10T12:31:41.932Z,2.88
2023-03-10T12:35:23.461Z,2.48
2023-03-10T12:39:05.145Z,6.70
2023-03-10T12:42:47.004Z,4.89
2023-03-10T12:46:28.807Z,3.74
2023-03-10T12:53:50.396Z,2.38
2023-03-10T13:01:12.263Z,4.32
2023-03-10T13:04:53.849Z,3.86
2023-03-10T13:12:15.656Z,6.25
2023-03-10T13:15:57.583Z,7.27
2023-03-10T13:19:39.404Z,6.91
2023-03-10T13:23:21.147Z,3.83
2023-03-10T13:27:02.909Z,5.34
2023-03-10T13:30:44.633Z,4.11
2023-03-10T13:34:26.517Z,7.34
2023-03-10T13:38:08.368Z,7.02
2023-03-10T13:41:50.042Z,2.80
2023-03-10T13:49:11.722Z,3.25
2023-03-10T13:52:53.342Z,2.60
2023-03-10T13:56:35.039Z,4.38
2023-03-10T14:03:56.911Z,4.26
2023-03-10T14:07:38.496Z,3.69
2023-03-10T14:18:40.257Z,2.86
2023-03-10T14:22:22.006Z,6.38
2023-03-10T14:26:03.732Z,9.33
2023-03-10T14:29:45.512Z,6.84
2023-03-10T14:33:27.442Z,7.13
2023-03-10T14:37:09.260Z,4.79
2023-03-10T14:40:51.193Z,7.65
2023-03-10T14:44:33.039Z,7.75
2023-03-10T14:48:15.229Z,7.91
2023-03-10T14:51:56.955Z,7.82
2023-03-10T14:55:38.879Z,11.10
2023-03-10T14:59:20.810Z,13.20
2023-03-10T15:03:04.418Z,7.54
2023-03-10T15:06:44.734Z,7.88
2023-03-10T15:10:26.654Z,7.00
2023-03-10T15:14:09.947Z,11.68
2023-03-10T15:17:50.685Z,12.13
2023-03-10T15:21:32.735Z,11.10
2023-03-10T15:25:14.734Z,16.88
2023-03-10T15:28:56.758Z,10.98
2023-03-10T15:32:38.816Z,9.59
2023-03-10T15:36:20.771Z,9.81
2023-03-10T15:40:02.705Z,11.43
2023-03-10T15:43:44.761Z,10.78
2023-03-10T15:47:26.804Z,12.20
2023-03-10T15:51:09.808Z,14.63
2023-03-10T15:54:50.768Z,15.66
2023-03-10T15:58:32.729Z,9.19
2023-03-10T16:02:14.782Z,13.14
2023-03-10T16:05:56.723Z,10.22
2023-03-10T16:09:38.660Z,7.11
2023-03-10T16:13:20.566Z,5.97
2023-03-10T16:17:02.434Z,10.97
2023-03-10T16:20:44.365Z,7.06
2023-03-10T16:24:26.271Z,7.21
2023-03-10T16:28:08.230Z,7.87
2023-03-10T16:31:50.368Z,7.07
2023-03-10T16:35:32.260Z,5.60
2023-03-10T16:39:16.248Z,5.37
2023-03-10T16:42:56.318Z,7.84
2023-03-10T16:46:38.208Z,4.97
2023-03-10T16:50:20.026Z,11.67
2023-03-10T16:54:01.787Z,7.11
2023-03-10T16:57:43.696Z,9.32
2023-03-10T17:01:25.690Z,5.58
2023-03-10T17:05:07.502Z,10.41
2023-03-10T17:08:49.461Z,7.05
2023-03-10T17:12:31.334Z,7.64
2023-03-10T17:16:14.426Z,4.46
2023-03-10T17:19:56.352Z,5.30
2023-03-10T17:23:38.391Z,7.57
2023-03-10T17:27:20.377Z,4.97
2023-03-10T17:31:02.357Z,6.56
2023-03-10T17:34:44.229Z,4.18
2023-03-10T17:38:26.005Z,3.49
2023-03-10T17:42:07.964Z,4.38
2023-03-10T17:45:49.782Z,2.29
2023-03-10T17:49:31.321Z,5.54
2023-03-10T17:53:13.149Z,5.83
2023-03-10T17:56:55.161Z,6.28
2023-03-10T18:00:37.088Z,4.76
2023-03-10T18:04:19.151Z,7.81
2023-03-10T18:08:01.234Z,8.47
2023-03-10T18:11:43.104Z,4.60
2023-03-10T18:15:24.978Z,5.29
2023-03-10T18:19:09.905Z,6.51
2023-03-10T18:22:49.122Z,7.12
2023-03-10T18:26:31.123Z,5.43
2023-03-10T18:30:12.918Z,4.21
2023-03-10T18:33:54.872Z,5.91
2023-03-10T18:37:36.715Z,4.53
2023-03-10T18:41:18.762Z,5.38
2023-03-10T18:45:00.726Z,5.74
2023-03-10T18:48:42.647Z,4.11
2023-03-10T18:52:24.608Z,3.78
2023-03-10T18:56:06.647Z,5.16
2023-03-10T18:59:48.571Z,3.62
2023-03-10T19:03:30.590Z,5.47
2023-03-10T19:07:12.609Z,7.54
2023-03-10T19:10:54.601Z,6.27
2023-03-10T19:14:36.643Z,9.29
2023-03-10T19:18:18.711Z,6.42
2023-03-10T19:22:00.862Z,9.73
2023-03-10T19:25:42.938Z,12.19
2023-03-10T19:29:25.026Z,7.05
2023-03-10T19:33:07.137Z,7.78
2023-03-10T19:36:49.301Z,7.94
2023-03-10T19:40:31.280Z,5.56
2023-03-10T19:44:13.434Z,5.74
2023-03-10T19:47:55.350Z,3.94
2023-03-10T19:51:37.390Z,4.00
2023-03-10T19:55:19.274Z,2.38
2023-03-10T19:59:01.181Z,3.87
2023-03-10T20:02:43.228Z,4.14
2023-03-10T20:06:25.094Z,2.69
2023-03-10T20:10:06.979Z,3.63
2023-03-10T20:13:48.894Z,2.90
2023-03-10T20:17:31.013Z,7.89
2023-03-10T20:21:13.168Z,7.35
2023-03-10T20:24:55.140Z,6.40
2023-03-10T20:28:37.161Z,4.23
2023-03-10T20:32:18.960Z,4.52
2023-03-10T20:36:00.763Z,3.20
2023-03-10T20:43:22.517Z,2.58
2023-03-10T20:47:04.277Z,3.89
2023-03-10T20:54:26.077Z,5.10
2023-03-10T20:58:07.941Z,3.54
2023-03-10T21:01:49.796Z,3.80
2023-03-10T21:09:11.604Z,6.78
2023-03-10T21:12:53.563Z,6.93
2023-03-10T21:16:36.649Z,4.47
2023-03-10T21:20:18.534Z,3.17
2023-03-10T21:24:01.520Z,4.32
2023-03-10T21:27:43.270Z,3.62
2023-03-10T21:31:25.011Z,7.09
2023-03-10T21:35:06.879Z,5.81
2023-03-10T21:38:48.909Z,6.55
2023-03-10T21:42:30.626Z,5.27
2023-03-10T21:49:52.490Z,4.87
2023-03-10T21:53:34.172Z,4.07
2023-03-10T21:57:15.795Z,3.87
2023-03-10T22:00:57.479Z,3.32
2023-03-10T22:04:39.298Z,3.61
2023-03-10T22:08:20.940Z,3.96
2023-03-10T22:12:02.845Z,6.22
2023-03-10T22:15:44.809Z,6.55
2023-03-10T22:19:26.596Z,6.22
2023-03-10T22:23:08.280Z,3.37
2023-03-10T22:26:50.095Z,3.55
2023-03-10T22:30:31.801Z,3.69
2023-03-10T22:34:13.472Z,2.95
2023-03-10T22:37:55.219Z,4.06
2023-03-10T22:41:38.680Z,4.83
2023-03-10T22:45:18.610Z,3.55
2023-03-10T22:49:00.229Z,4.87
2023-03-10T22:52:41.930Z,3.98
2023-03-10T22:56:23.620Z,3.16
2023-03-10T23:00:07.344Z,3.95
2023-03-10T23:03:49.225Z,4.52
2023-03-10T23:07:30.943Z,4.45
2023-03-10T23:11:12.738Z,4.63
2023-03-10T23:14:54.497Z,5.46
2023-03-10T23:18:36.239Z,5.27
2023-03-10T23:22:18.064Z,5.00
2023-03-10T23:25:59.735Z,3.73
2023-03-10T23:29:41.485Z,5.24
2023-03-10T23:33:23.309Z,4.69
2023-03-10T23:37:05.049Z,4.38
2023-03-10T23:40:46.746Z,3.48
2023-03-10T23:44:28.420Z,4.94
2023-03-10T23:48:10.096Z,2.88
2023-03-10T23:51:51.669Z,2.41
2023-03-10T23:59:13.508Z,5.81
